createdAt,value
2022-11-16T12:26:07.757Z,1558.13
2022-11-16T12:27:07.732Z,1614.38
2022-11-16T12:28:07.687Z,1586.25
2022-11-16T12:29:07.666Z,1558.13
2022-11-16T12:30:07.662Z,1670.63
2022-11-16T12:31:07.626Z,1468.13
2022-11-16T12:32:33.487Z,344154.38
2022-11-16T12:33:33.741Z,344154.38
2022-11-16T12:34:33.433Z,344154.38
2022-11-16T12:35:33.423Z,344154.38
2022-11-16T12:36:33.393Z,344154.38
2022-11-16T12:37:33.391Z,344154.38
2022-11-16T12:38:33.368Z,344154.38
2022-11-16T12:39:33.352Z,344154.38
2022-11-16T12:40:33.317Z,344154.38
2022-11-16T12:41:33.377Z,344154.38
2022-11-16T12:42:33.295Z,344154.38
2022-11-16T12:43:33.639Z,344154.38
2022-11-16T12:44:33.257Z,344154.38
2022-11-16T12:45:33.237Z,344154.38
2022-11-16T12:46:41.162Z,344154.38
2022-11-16T12:49:58.393Z,1501.88
2022-11-16T12:50:58.358Z,1479.38
2022-11-16T12:51:58.334Z,1524.38
2022-11-16T12:52:58.330Z,1563.75
2022-11-16T12:53:58.298Z,1546.88
2022-11-16T12:55:24.640Z,1383.75
2022-11-16T12:55:58.272Z,1006.88
2022-11-16T13:08:58.774Z,545.63
2022-11-16T13:09:58.660Z,1035.00
2022-11-16T13:10:58.660Z,900.00
2022-11-16T13:11:58.667Z,810.00
2022-11-16T13:13:21.890Z,703.13
2022-11-16T13:13:58.992Z,590.63
2022-11-16T13:28:03.364Z,208794.38
2022-11-16T13:29:03.258Z,208794.38
2022-11-16T13:30:03.229Z,208794.38
2022-11-16T13:31:03.216Z,208794.38
2022-11-16T13:32:03.205Z,208794.38
2022-11-16T13:33:03.192Z,208794.38
